createdAt,value
2023-05-25T00:01:02.487Z,1.45
2023-05-25T00:03:31.922Z,1.60
2023-05-25T00:06:01.555Z,1.40
2023-05-25T00:08:29.269Z,1.48
2023-05-25T00:10:56.101Z,1.50
2023-05-25T00:13:22.692Z,1.80
2023-05-25T00:15:49.323Z,1.60
2023-05-25T00:18:16.154Z,1.88
2023-05-25T00:20:44.619Z,1.60
2023-05-25T00:23:11.310Z,1.80
2023-05-25T00:25:38.206Z,1.80
2023-05-25T00:28:04.970Z,1.63
2023-05-25T00:30:31.723Z,1.63
2023-05-25T00:32:59.993Z,1.70
2023-05-25T00:35:26.627Z,1.90
2023-05-25T00:37:53.186Z,1.60
2023-05-25T00:40:20.264Z,1.67
2023-05-25T00:42:47.350Z,1.52
2023-05-25T00:45:13.936Z,1.70
2023-05-25T00:47:41.669Z,1.60
2023-05-25T00:50:10.680Z,1.80
2023-05-25T00:52:37.385Z,1.77
2023-05-25T00:55:06.949Z,1.73
2023-05-25T00:57:34.281Z,1.55
2023-05-25T01:00:02.702Z,1.85
2023-05-25T01:02:31.220Z,1.88
2023-05-25T01:05:02.696Z,1.70
2023-05-25T01:07:31.104Z,1.52
2023-05-25T01:10:00.190Z,1.92
2023-05-25T01:12:29.285Z,1.85
2023-05-25T01:14:56.790Z,1.70
2023-05-25T01:17:23.602Z,1.80
2023-05-25T01:20:08.227Z,1.77
2023-05-25T01:22:56.278Z,1.80
2023-05-25T01:25:27.467Z,1.70
2023-05-25T01:28:06.039Z,1.80
2023-05-25T01:30:33.262Z,2.00
2023-05-25T01:33:01.360Z,1.90
2023-05-25T01:35:28.602Z,1.73
2023-05-25T01:37:55.533Z,2.33
2023-05-25T01:40:22.186Z,2.00
2023-05-25T01:42:48.872Z,2.20
2023-05-25T01:45:16.849Z,1.92
2023-05-25T01:47:54.260Z,2.25
2023-05-25T01:50:23.949Z,1.75
2023-05-25T01:53:02.708Z,2.10
2023-05-25T01:55:32.736Z,1.73
2023-05-25T01:58:00.112Z,2.15
2023-05-25T02:00:31.583Z,1.98
2023-05-25T02:02:58.701Z,2.08
2023-05-25T02:05:25.568Z,2.53
2023-05-25T02:07:52.612Z,1.88
2023-05-25T02:10:19.218Z,2.28
2023-05-25T02:12:46.260Z,2.20
2023-05-25T02:15:13.037Z,2.17
2023-05-25T02:17:39.640Z,2.35
2023-05-25T02:20:07.072Z,1.98
2023-05-25T02:22:34.373Z,1.88
2023-05-25T02:25:01.124Z,2.00
2023-05-25T02:27:27.786Z,2.22
2023-05-25T02:29:54.469Z,2.22
2023-05-25T02:32:21.431Z,2.00
2023-05-25T02:34:48.632Z,2.35
2023-05-25T02:37:15.448Z,2.25
2023-05-25T02:39:41.984Z,2.30
2023-05-25T02:42:08.662Z,2.22
2023-05-25T02:44:35.668Z,2.58
2023-05-25T02:47:02.536Z,2.45
2023-05-25T02:49:30.027Z,2.42
2023-05-25T02:51:56.714Z,2.38
2023-05-25T02:54:23.245Z,2.60
2023-05-25T02:56:49.912Z,2.40
2023-05-25T02:59:16.582Z,2.33
2023-05-25T03:01:43.187Z,2.53
2023-05-25T03:04:09.946Z,2.40
2023-05-25T03:06:36.783Z,2.58
2023-05-25T03:09:05.198Z,2.80
2023-05-25T03:11:31.933Z,2.72
2023-05-25T03:13:58.971Z,3.88
2023-05-25T03:16:26.144Z,3.00
2023-05-25T03:18:53.118Z,2.22
2023-05-25T03:21:19.927Z,2.30
2023-05-25T03:23:46.494Z,1.92
2023-05-25T03:26:13.218Z,2.70
2023-05-25T03:28:39.898Z,2.90
2023-05-25T03:31:06.498Z,2.83
2023-05-25T03:33:33.970Z,2.45
2023-05-25T03:36:00.845Z,2.53
2023-05-25T03:38:27.399Z,2.67
2023-05-25T03:40:54.059Z,3.05
2023-05-25T03:43:20.710Z,3.10
2023-05-25T03:45:47.578Z,3.15
2023-05-25T03:48:14.385Z,3.25
2023-05-25T03:50:41.193Z,3.05
2023-05-25T03:53:08.633Z,3.15
2023-05-25T03:55:35.329Z,3.08
2023-05-25T03:58:01.950Z,2.97
2023-05-25T04:00:28.490Z,3.15
2023-05-25T04:02:55.122Z,3.05
2023-05-25T04:05:21.934Z,3.88
2023-05-25T04:07:48.450Z,3.17
2023-05-25T04:10:15.030Z,3.15
2023-05-25T04:12:41.610Z,2.65
2023-05-25T04:15:09.596Z,3.20
2023-05-25T04:17:39.221Z,2.95
2023-05-25T04:20:08.884Z,2.90
2023-05-25T04:22:38.855Z,3.15
2023-05-25T04:25:08.570Z,2.80
2023-05-25T04:27:35.276Z,3.00
2023-05-25T04:30:02.576Z,3.00
2023-05-25T04:32:30.065Z,2.95
2023-05-25T04:34:56.985Z,2.70
2023-05-25T04:37:27.395Z,3.08
2023-05-25T04:39:54.146Z,3.13
2023-05-25T04:42:24.117Z,2.65
2023-05-25T04:45:00.921Z,2.72
2023-05-25T04:47:27.713Z,3.10
2023-05-25T04:49:54.361Z,3.38
2023-05-25T04:52:20.927Z,2.95
2023-05-25T04:54:47.643Z,3.20
2023-05-25T04:57:14.256Z,3.00
2023-05-25T04:59:41.075Z,3.42
2023-05-25T05:02:08.805Z,2.88
2023-05-25T05:04:37.310Z,3.40
2023-05-25T05:07:04.196Z,2.95
2023-05-25T05:09:30.983Z,3.70
2023-05-25T05:12:25.519Z,3.03
2023-05-25T05:14:52.406Z,2.90
2023-05-25T05:17:19.209Z,3.25
2023-05-25T05:19:45.901Z,2.88
2023-05-25T05:22:15.608Z,3.28
2023-05-25T05:24:42.360Z,3.60
2023-05-25T05:27:09.216Z,3.20
2023-05-25T05:29:37.727Z,3.42
2023-05-25T05:32:04.474Z,3.15
2023-05-25T05:34:31.566Z,3.70
2023-05-25T05:36:58.961Z,3.47
2023-05-25T05:39:28.731Z,3.38
2023-05-25T05:41:55.660Z,3.15
2023-05-25T05:44:26.898Z,3.45
2023-05-25T05:47:02.065Z,3.40
2023-05-25T05:49:32.325Z,3.70
2023-05-25T05:51:59.374Z,3.00
2023-05-25T05:54:28.146Z,3.00
2023-05-25T05:56:55.013Z,3.55
2023-05-25T05:59:22.336Z,3.00
2023-05-25T06:01:48.975Z,3.50
2023-05-25T06:04:16.265Z,3.30
2023-05-25T06:06:43.398Z,3.15
2023-05-25T06:09:10.104Z,2.92
2023-05-25T06:11:40.193Z,3.47
2023-05-25T06:14:07.028Z,3.20
2023-05-25T06:16:33.781Z,3.50
2023-05-25T06:19:00.570Z,3.10
2023-05-25T06:21:27.356Z,3.08
2023-05-25T06:23:54.494Z,3.67
2023-05-25T06:26:21.866Z,3.38
2023-05-25T06:28:50.129Z,3.75
2023-05-25T06:31:16.742Z,3.50
2023-05-25T06:33:43.495Z,3.35
2023-05-25T06:36:11.096Z,3.72
2023-05-25T06:38:37.708Z,3.15
2023-05-25T06:41:05.669Z,3.28
2023-05-25T06:43:32.417Z,3.38
2023-05-25T06:45:59.538Z,3.53
2023-05-25T06:48:26.708Z,3.58
2023-05-25T06:50:53.304Z,2.80
2023-05-25T06:53:19.869Z,3.20
2023-05-25T06:55:46.975Z,3.80
2023-05-25T06:58:13.638Z,3.40
2023-05-25T07:00:40.245Z,3.42
2023-05-25T07:03:07.040Z,3.78
2023-05-25T07:05:33.694Z,3.33
2023-05-25T07:08:00.264Z,3.70
2023-05-25T07:10:27.040Z,3.70
2023-05-25T07:12:53.782Z,3.67
2023-05-25T07:15:21.703Z,3.28
2023-05-25T07:17:48.677Z,3.72
2023-05-25T07:20:15.452Z,3.42
2023-05-25T07:22:43.668Z,3.53
2023-05-25T07:25:10.567Z,3.92
2023-05-25T07:27:37.399Z,3.65
2023-05-25T07:30:04.873Z,3.40
2023-05-25T07:32:31.562Z,3.50
2023-05-25T07:34:58.659Z,3.63
2023-05-25T07:37:25.256Z,3.58
2023-05-25T07:39:51.968Z,3.30
2023-05-25T07:42:21.790Z,3.30
2023-05-25T07:44:49.149Z,3.55
2023-05-25T07:47:16.259Z,3.70
2023-05-25T07:49:42.865Z,3.70
2023-05-25T07:52:09.513Z,3.67
2023-05-25T07:54:40.225Z,3.53
2023-05-25T07:57:08.000Z,3.20
2023-05-25T07:59:34.879Z,3.53
2023-05-25T08:02:01.760Z,3.67
2023-05-25T08:04:28.494Z,3.47
2023-05-25T08:06:55.839Z,4.00
2023-05-25T08:09:22.585Z,4.07
2023-05-25T08:11:49.341Z,3.53
2023-05-25T08:14:16.841Z,3.63
2023-05-25T08:16:43.689Z,3.42
2023-05-25T08:19:10.292Z,3.90
2023-05-25T08:21:37.756Z,3.85
2023-05-25T08:24:05.210Z,3.60
2023-05-25T08:26:45.236Z,3.60
2023-05-25T08:29:19.026Z,3.63
2023-05-25T08:31:49.595Z,4.00
2023-05-25T08:34:18.568Z,3.78
2023-05-25T08:36:45.941Z,3.90
2023-05-25T08:39:13.267Z,3.50
2023-05-25T08:41:43.153Z,3.72
2023-05-25T08:44:11.016Z,4.15
2023-05-25T08:46:37.887Z,3.75
2023-05-25T08:49:09.196Z,3.55
2023-05-25T08:51:38.341Z,3.90
2023-05-25T08:54:13.628Z,3.55
2023-05-25T08:56:56.146Z,4.05
2023-05-25T08:59:45.611Z,4.05
2023-05-25T09:02:56.754Z,3.95
2023-05-25T09:05:24.445Z,4.15
2023-05-25T09:07:51.732Z,3.75
2023-05-25T09:10:18.973Z,4.22
2023-05-25T09:12:46.803Z,4.35
2023-05-25T09:15:13.582Z,3.65
2023-05-25T09:17:41.550Z,4.03
2023-05-25T09:20:11.077Z,4.13
2023-05-25T09:22:37.745Z,4.13
2023-05-25T09:25:11.628Z,3.67
2023-05-25T09:27:38.933Z,4.40
2023-05-25T09:30:06.721Z,3.72
2023-05-25T09:32:33.659Z,3.60
2023-05-25T09:35:11.624Z,4.05
2023-05-25T09:37:38.985Z,4.88
2023-05-25T09:40:06.590Z,3.65
2023-05-25T09:42:36.805Z,4.05
2023-05-25T09:45:04.669Z,4.05
2023-05-25T09:47:31.985Z,3.70
2023-05-25T09:49:59.284Z,4.18
2023-05-25T09:52:26.433Z,4.18
2023-05-25T09:54:53.062Z,4.38
2023-05-25T09:57:20.798Z,4.15
2023-05-25T09:59:47.906Z,4.53
2023-05-25T10:02:15.861Z,3.85
2023-05-25T10:04:42.652Z,4.00
2023-05-25T10:07:09.778Z,3.83
2023-05-25T10:09:43.192Z,3.90
2023-05-25T10:12:11.025Z,4.45
2023-05-25T10:14:38.680Z,4.07
2023-05-25T10:17:07.165Z,3.78
2023-05-25T10:19:43.069Z,4.63
2023-05-25T10:22:26.520Z,4.15
2023-05-25T10:25:18.146Z,3.92
2023-05-25T10:27:48.611Z,4.40
2023-05-25T10:30:16.391Z,5.72
2023-05-25T10:32:45.198Z,4.07
2023-05-25T10:35:12.475Z,4.18
2023-05-25T10:37:40.052Z,4.20
2023-05-25T10:40:08.867Z,4.07
2023-05-25T10:42:37.474Z,4.38
2023-05-25T10:45:09.040Z,3.55
2023-05-25T10:47:37.971Z,4.25
2023-05-25T10:50:04.957Z,4.28
2023-05-25T10:52:32.642Z,3.92
2023-05-25T10:55:05.420Z,3.92
2023-05-25T10:57:32.738Z,4.40
2023-05-25T11:00:10.647Z,4.53
2023-05-25T11:02:56.449Z,5.68
2023-05-25T11:05:26.361Z,4.93
2023-05-25T11:08:00.729Z,4.55
2023-05-25T11:10:50.611Z,4.60
2023-05-25T11:13:24.057Z,4.50
2023-05-25T11:16:17.825Z,4.38
2023-05-25T11:18:53.558Z,4.38
2023-05-25T11:21:27.233Z,4.68
2023-05-25T11:24:06.830Z,4.70
2023-05-25T11:26:34.705Z,4.55
2023-05-25T11:29:12.040Z,4.57
2023-05-25T11:31:42.431Z,4.70
2023-05-25T11:34:11.976Z,5.00
2023-05-25T11:36:39.375Z,4.88
2023-05-25T11:39:17.028Z,5.13
2023-05-25T11:41:49.690Z,5.30
2023-05-25T11:44:28.298Z,4.57
2023-05-25T11:46:57.252Z,3.88
2023-05-25T11:49:25.936Z,4.82
2023-05-25T11:51:54.284Z,4.70
2023-05-25T11:54:22.664Z,5.00
2023-05-25T11:56:49.379Z,5.38
2023-05-25T11:59:17.056Z,5.10
2023-05-25T12:01:43.609Z,4.72
2023-05-25T12:04:11.544Z,5.18
2023-05-25T12:06:41.395Z,5.18
2023-05-25T12:09:13.101Z,4.93
2023-05-25T12:11:39.904Z,5.00
2023-05-25T12:14:07.686Z,4.57
2023-05-25T12:16:38.942Z,4.78
2023-05-25T12:19:07.077Z,4.22
2023-05-25T12:21:35.215Z,4.55
2023-05-25T12:24:03.012Z,4.50
2023-05-25T12:26:29.772Z,5.20
2023-05-25T12:29:07.210Z,5.10
2023-05-25T12:31:38.789Z,4.53
2023-05-25T12:34:14.347Z,6.00
2023-05-25T12:36:45.579Z,5.57
2023-05-25T12:39:14.013Z,6.35
2023-05-25T12:41:44.327Z,4.75
2023-05-25T12:44:21.694Z,4.50
2023-05-25T12:46:49.981Z,4.85
2023-05-25T12:49:46.699Z,4.45
2023-05-25T12:52:33.853Z,4.65
2023-05-25T12:55:21.207Z,4.85
2023-05-25T12:57:52.827Z,4.32
2023-05-25T13:00:24.062Z,4.55
2023-05-25T13:02:51.688Z,4.32
2023-05-25T13:05:23.229Z,4.03
2023-05-25T13:07:50.662Z,4.55
2023-05-25T13:10:17.924Z,4.03
2023-05-25T13:12:48.673Z,4.32
2023-05-25T13:15:18.624Z,3.60
2023-05-25T13:17:45.408Z,4.38
2023-05-25T13:20:13.433Z,4.05
2023-05-25T13:22:42.090Z,4.60
2023-05-25T13:25:09.711Z,4.50
2023-05-25T13:27:38.162Z,4.30
2023-05-25T13:30:06.734Z,4.53
2023-05-25T13:32:34.275Z,3.92
2023-05-25T13:35:01.315Z,3.90
2023-05-25T13:37:28.147Z,4.45
2023-05-25T13:39:55.025Z,4.35
2023-05-25T13:42:22.192Z,4.22
2023-05-25T13:44:48.800Z,3.70
2023-05-25T13:47:15.520Z,3.50
2023-05-25T13:49:43.577Z,3.75
2023-05-25T13:52:10.462Z,3.90
2023-05-25T13:54:37.371Z,3.67
2023-05-25T13:57:04.163Z,3.30
2023-05-25T13:59:30.794Z,4.18
2023-05-25T14:01:57.519Z,3.50
2023-05-25T14:04:24.212Z,3.47
2023-05-25T14:06:51.553Z,3.35
2023-05-25T14:09:18.345Z,3.38
2023-05-25T14:11:44.990Z,3.47
2023-05-25T14:14:19.745Z,2.80
2023-05-25T14:16:54.028Z,3.38
2023-05-25T14:19:20.693Z,3.10
2023-05-25T14:21:49.815Z,3.00
2023-05-25T14:24:23.658Z,3.22
2023-05-25T14:26:50.410Z,3.28
2023-05-25T14:29:16.978Z,3.13
2023-05-25T14:31:43.693Z,3.40
2023-05-25T14:34:10.326Z,2.72
2023-05-25T14:36:38.192Z,3.00
2023-05-25T14:39:04.883Z,3.20
2023-05-25T14:41:31.530Z,3.00
2023-05-25T14:43:58.059Z,3.00
2023-05-25T14:46:24.917Z,3.13
2023-05-25T14:48:51.603Z,2.80
2023-05-25T14:51:18.234Z,2.85
2023-05-25T14:53:45.406Z,2.90
2023-05-25T14:56:12.051Z,3.00
2023-05-25T14:58:38.580Z,3.25
2023-05-25T15:01:05.233Z,2.80
2023-05-25T15:03:32.617Z,2.63
2023-05-25T15:05:59.276Z,2.40
2023-05-25T15:08:25.915Z,2.55
2023-05-25T15:10:52.784Z,3.22
2023-05-25T15:13:22.499Z,2.80
2023-05-25T15:15:52.110Z,2.95
2023-05-25T15:18:18.901Z,2.65
2023-05-25T15:20:45.677Z,2.90
2023-05-25T15:23:12.450Z,3.20
2023-05-25T15:25:39.196Z,3.28
2023-05-25T15:28:05.885Z,3.20
2023-05-25T15:30:34.224Z,3.15
2023-05-25T15:33:01.710Z,3.33
2023-05-25T15:35:32.109Z,3.78
2023-05-25T15:37:59.634Z,2.80
2023-05-25T15:40:26.498Z,2.95
2023-05-25T15:42:53.319Z,2.83
2023-05-25T15:45:20.030Z,2.45
2023-05-25T15:47:46.795Z,2.67
2023-05-25T15:50:13.462Z,2.63
2023-05-25T15:52:40.141Z,2.50
2023-05-25T15:55:09.442Z,2.47
2023-05-25T15:57:36.009Z,2.90
2023-05-25T16:00:02.767Z,2.47
2023-05-25T16:02:29.453Z,2.25
2023-05-25T16:04:56.017Z,2.70
2023-05-25T16:07:22.680Z,3.15
2023-05-25T16:09:49.279Z,2.20
2023-05-25T16:12:15.904Z,2.88
2023-05-25T16:14:44.203Z,2.30
2023-05-25T16:17:11.654Z,2.40
2023-05-25T16:19:38.202Z,2.50
2023-05-25T16:22:05.335Z,2.30
2023-05-25T16:24:31.890Z,2.08
2023-05-25T16:26:58.879Z,2.20
2023-05-25T16:29:25.866Z,2.30
2023-05-25T16:31:54.800Z,2.53
2023-05-25T16:34:21.956Z,2.42
2023-05-25T16:36:48.868Z,2.53
2023-05-25T16:39:15.505Z,2.25
2023-05-25T16:41:42.109Z,2.00
2023-05-25T16:44:11.505Z,2.30
2023-05-25T16:46:38.485Z,2.17
2023-05-25T16:49:05.419Z,2.53
2023-05-25T16:51:32.093Z,2.53
2023-05-25T16:53:58.662Z,2.70
2023-05-25T16:56:26.355Z,2.97
2023-05-25T16:58:53.163Z,2.78
2023-05-25T17:01:19.876Z,2.83
2023-05-25T17:03:46.679Z,3.13
2023-05-25T17:06:13.822Z,2.63
2023-05-25T17:08:40.396Z,2.72
2023-05-25T17:11:06.985Z,2.80
2023-05-25T17:13:33.917Z,2.80
2023-05-25T17:16:00.557Z,3.10
2023-05-25T17:18:27.156Z,2.67
2023-05-25T17:20:54.141Z,2.92
2023-05-25T17:23:22.042Z,3.47
2023-05-25T17:25:48.710Z,2.53
2023-05-25T17:28:15.477Z,2.80
2023-05-25T17:30:42.092Z,2.90
2023-05-25T17:33:08.672Z,3.15
2023-05-25T17:35:35.659Z,2.97
2023-05-25T17:38:02.215Z,2.92
2023-05-25T17:40:28.781Z,2.90
2023-05-25T17:42:55.711Z,2.90
2023-05-25T17:45:22.276Z,2.70
2023-05-25T17:47:49.013Z,2.72
2023-05-25T17:50:16.794Z,3.72
2023-05-25T17:52:43.442Z,2.83
2023-05-25T17:55:10.190Z,3.00
2023-05-25T17:57:37.168Z,3.03
2023-05-25T18:00:04.581Z,3.00
2023-05-25T18:02:31.548Z,3.08
2023-05-25T18:04:58.505Z,3.00
2023-05-25T18:07:25.315Z,2.72
2023-05-25T18:09:52.009Z,3.03
2023-05-25T18:12:18.728Z,2.60
2023-05-25T18:14:45.343Z,3.25
2023-05-25T18:17:12.302Z,3.10
2023-05-25T18:19:39.148Z,2.80
2023-05-25T18:22:05.731Z,3.22
2023-05-25T18:24:32.449Z,2.70
2023-05-25T18:27:03.765Z,2.65
2023-05-25T18:29:31.091Z,3.25
2023-05-25T18:31:57.647Z,2.70
2023-05-25T18:34:24.567Z,2.95
2023-05-25T18:36:51.370Z,2.72
2023-05-25T18:39:17.878Z,2.70
2023-05-25T18:41:44.627Z,3.05
2023-05-25T18:44:11.320Z,3.30
2023-05-25T18:46:40.191Z,2.83
2023-05-25T18:49:07.083Z,2.90
2023-05-25T18:51:33.972Z,2.72
2023-05-25T18:54:00.758Z,3.15
2023-05-25T18:56:27.658Z,3.40
2023-05-25T18:58:55.478Z,3.42
2023-05-25T19:01:22.984Z,3.15
2023-05-25T19:03:49.796Z,3.53
2023-05-25T19:06:16.424Z,3.13
2023-05-25T19:08:43.609Z,2.90
2023-05-25T19:11:10.476Z,2.72
2023-05-25T19:13:37.052Z,3.03
2023-05-25T19:16:04.447Z,2.90
2023-05-25T19:18:31.216Z,2.92
2023-05-25T19:20:58.451Z,3.08
2023-05-25T19:23:24.986Z,2.83
2023-05-25T19:25:51.851Z,3.08
2023-05-25T19:28:18.417Z,3.03
2023-05-25T19:30:44.993Z,2.70
2023-05-25T19:33:11.813Z,3.05
2023-05-25T19:35:39.146Z,3.03
2023-05-25T19:38:05.684Z,3.00
2023-05-25T19:40:32.596Z,2.95
2023-05-25T19:42:59.266Z,3.38
2023-05-25T19:45:25.863Z,3.22
2023-05-25T19:47:52.766Z,3.40
2023-05-25T19:50:19.525Z,3.10
2023-05-25T19:52:46.755Z,3.53
2023-05-25T19:55:13.596Z,3.20
2023-05-25T19:57:40.170Z,3.47
2023-05-25T20:00:11.557Z,2.80
2023-05-25T20:02:48.008Z,3.00
2023-05-25T20:05:14.630Z,2.92
2023-05-25T20:07:41.473Z,3.20
2023-05-25T20:10:08.302Z,3.42
2023-05-25T20:12:35.238Z,3.17
2023-05-25T20:15:01.816Z,3.60
2023-05-25T20:17:29.015Z,3.15
2023-05-25T20:19:57.509Z,3.08
2023-05-25T20:22:24.254Z,3.10
2023-05-25T20:24:53.414Z,3.80
2023-05-25T20:27:20.110Z,3.22
2023-05-25T20:29:46.745Z,3.00
2023-05-25T20:32:13.447Z,3.35
2023-05-25T20:34:40.084Z,3.03
2023-05-25T20:37:06.743Z,3.20
2023-05-25T20:39:33.380Z,2.95
2023-05-25T20:42:01.648Z,3.90
2023-05-25T20:44:28.863Z,3.22
2023-05-25T20:46:55.672Z,3.47
2023-05-25T20:49:24.399Z,3.58
2023-05-25T20:51:52.547Z,3.80
2023-05-25T20:54:19.448Z,3.53
2023-05-25T20:56:47.896Z,3.65
2023-05-25T20:59:14.715Z,3.33
2023-05-25T21:01:41.375Z,3.88
2023-05-25T21:04:08.134Z,3.72
2023-05-25T21:06:34.824Z,4.25
2023-05-25T21:09:01.826Z,3.65
2023-05-25T21:11:28.927Z,3.42
2023-05-25T21:13:55.679Z,2.97
2023-05-25T21:16:22.446Z,3.58
2023-05-25T21:18:49.087Z,3.05
2023-05-25T21:21:16.178Z,3.35
2023-05-25T21:23:42.895Z,3.75
2023-05-25T21:26:09.465Z,3.13
2023-05-25T21:28:36.308Z,3.30
2023-05-25T21:31:03.151Z,3.00
2023-05-25T21:33:33.586Z,2.80
2023-05-25T21:36:00.377Z,3.20
2023-05-25T21:38:27.092Z,2.90
2023-05-25T21:40:54.223Z,2.92
2023-05-25T21:43:20.823Z,3.15
2023-05-25T21:45:47.758Z,3.03
2023-05-25T21:48:14.387Z,3.00
2023-05-25T21:50:41.160Z,3.17
2023-05-25T21:53:07.798Z,3.20
2023-05-25T21:55:34.351Z,3.10
2023-05-25T21:58:01.058Z,3.58
2023-05-25T22:00:27.696Z,3.35
2023-05-25T22:02:54.423Z,3.65
2023-05-25T22:05:21.172Z,3.30
2023-05-25T22:07:47.868Z,3.45
2023-05-25T22:10:14.495Z,3.08
2023-05-25T22:12:41.126Z,3.08
2023-05-25T22:15:08.439Z,3.30
2023-05-25T22:17:35.112Z,3.13
2023-05-25T22:22:31.449Z,2.80
2023-05-25T22:24:58.137Z,3.30
2023-05-25T22:27:24.683Z,3.30
2023-05-25T22:29:51.519Z,3.25
2023-05-25T22:32:18.202Z,2.90
2023-05-25T22:34:44.758Z,3.25
2023-05-25T22:37:11.747Z,3.53
2023-05-25T22:39:38.339Z,3.50
2023-05-25T22:42:06.681Z,3.30
2023-05-25T22:44:37.766Z,2.95
2023-05-25T22:47:06.232Z,3.05
2023-05-25T22:49:43.950Z,3.15
2023-05-25T22:52:11.656Z,3.33
2023-05-25T22:54:38.416Z,3.10
2023-05-25T22:57:05.846Z,3.17
2023-05-25T22:59:32.522Z,3.10
2023-05-25T23:01:59.104Z,3.30
2023-05-25T23:04:25.883Z,3.45
2023-05-25T23:06:52.531Z,3.20
2023-05-25T23:09:19.102Z,3.50
2023-05-25T23:11:45.841Z,3.42
2023-05-25T23:14:12.545Z,3.08
2023-05-25T23:16:39.194Z,3.00
2023-05-25T23:19:06.406Z,3.03
2023-05-25T23:21:33.661Z,3.10
2023-05-25T23:24:00.471Z,3.45
2023-05-25T23:26:27.346Z,3.28
2023-05-25T23:28:54.155Z,3.47
2023-05-25T23:31:21.224Z,3.20
2023-05-25T23:33:47.855Z,3.60
2023-05-25T23:36:15.081Z,3.13
2023-05-25T23:38:41.970Z,3.63
2023-05-25T23:41:08.844Z,3.95
2023-05-25T23:43:35.656Z,3.75
2023-05-25T23:46:02.551Z,3.63
2023-05-25T23:48:29.264Z,3.33
2023-05-25T23:50:55.934Z,3.90
2023-05-25T23:53:22.558Z,3.40
2023-05-25T23:55:49.301Z,3.40
2023-05-25T23:58:15.864Z,3.50
